createdAt,value
2019-01-27T00:02:06.140Z,4.77
2019-01-27T00:04:34.073Z,5.33
2019-01-27T00:07:04.457Z,5.67
2019-01-27T00:09:32.438Z,4.27
2019-01-27T00:12:00.339Z,4.90
2019-01-27T00:14:28.180Z,4.63
2019-01-27T00:16:56.066Z,5.20
2019-01-27T00:19:24.178Z,4.50
2019-01-27T00:21:52.108Z,5.17
2019-01-27T00:24:19.996Z,7.27
2019-01-27T00:26:47.959Z,7.03
2019-01-27T00:29:15.867Z,5.77
2019-01-27T00:31:44.659Z,7.03
2019-01-27T00:34:12.687Z,5.07
2019-01-27T00:36:40.643Z,8.50
2019-01-27T00:39:09.268Z,6.00
2019-01-27T00:41:37.280Z,4.97
2019-01-27T00:44:05.224Z,8.77
2019-01-27T00:46:33.070Z,4.83
2019-01-27T00:49:01.183Z,5.10
2019-01-27T00:51:29.216Z,4.47
2019-01-27T00:53:57.087Z,4.40
2019-01-27T00:56:25.079Z,5.33
2019-01-27T00:58:53.299Z,4.57
2019-01-27T01:01:21.396Z,6.60
2019-01-27T01:03:49.300Z,4.53
2019-01-27T01:06:17.258Z,4.07
2019-01-27T01:08:45.121Z,8.10
2019-01-27T01:11:13.106Z,4.93
2019-01-27T01:13:42.956Z,7.20
2019-01-27T01:16:10.582Z,6.83
2019-01-27T01:18:38.465Z,7.37
2019-01-27T01:21:07.422Z,7.43
2019-01-27T01:23:35.244Z,7.50
2019-01-27T01:26:03.177Z,5.13
2019-01-27T01:28:31.095Z,6.43
2019-01-27T01:30:59.046Z,5.97
2019-01-27T01:33:26.963Z,5.43
2019-01-27T01:35:57.562Z,4.90
2019-01-27T01:38:25.471Z,6.80
2019-01-27T01:40:53.384Z,5.40
2019-01-27T01:43:21.423Z,4.20
2019-01-27T01:45:49.395Z,4.63
2019-01-27T01:48:17.367Z,6.07
2019-01-27T01:50:45.344Z,5.27
2019-01-27T01:53:13.241Z,7.60
2019-01-27T01:55:41.111Z,6.67
2019-01-27T01:58:09.149Z,6.50
2019-01-27T02:00:38.934Z,6.23
2019-01-27T02:03:06.842Z,7.50
2019-01-27T02:05:35.048Z,6.03
2019-01-27T02:08:03.069Z,9.17
2019-01-27T02:10:30.955Z,6.57
2019-01-27T02:12:58.941Z,10.93
2019-01-27T02:15:49.099Z,6.77
2019-01-27T02:18:16.982Z,5.90
2019-01-27T02:20:44.863Z,8.23
2019-01-27T02:23:12.768Z,7.00
2019-01-27T02:25:40.805Z,8.10
2019-01-27T02:28:08.785Z,12.10
2019-01-27T02:30:37.190Z,15.07
2019-01-27T02:33:05.206Z,18.60
2019-01-27T02:35:33.139Z,12.03
2019-01-27T02:38:01.070Z,8.50
2019-01-27T02:40:28.967Z,10.83
2019-01-27T02:42:56.834Z,8.33
2019-01-27T02:45:25.735Z,6.47
2019-01-27T02:47:53.640Z,7.30
2019-01-27T02:50:21.941Z,9.07
2019-01-27T02:52:51.242Z,10.03
2019-01-27T02:55:21.181Z,9.97
2019-01-27T02:57:49.040Z,9.37
2019-01-27T03:00:17.412Z,10.13
2019-01-27T03:02:45.240Z,14.10
2019-01-27T03:05:50.561Z,10.53
2019-01-27T03:08:18.443Z,9.57
2019-01-27T03:10:46.323Z,8.87
2019-01-27T03:13:14.329Z,13.47
2019-01-27T03:15:42.220Z,15.10
2019-01-27T03:18:10.101Z,12.43
2019-01-27T03:20:38.042Z,13.90
2019-01-27T03:23:05.999Z,12.30
2019-01-27T03:25:33.947Z,19.57
2019-01-27T03:28:02.014Z,15.63
2019-01-27T03:30:31.015Z,14.77
2019-01-27T03:33:02.025Z,11.60
2019-01-27T03:35:30.126Z,14.07
2019-01-27T03:37:58.068Z,12.43
2019-01-27T03:40:26.009Z,17.47
2019-01-27T03:42:55.315Z,16.33
2019-01-27T03:45:23.253Z,17.93
2019-01-27T03:47:52.098Z,15.40
2019-01-27T03:50:20.059Z,18.30
2019-01-27T03:52:48.026Z,10.30
2019-01-27T03:55:18.011Z,16.00
2019-01-27T03:57:45.887Z,13.00
2019-01-27T04:00:17.764Z,9.70
2019-01-27T04:02:45.802Z,13.53
2019-01-27T04:05:13.738Z,12.47
2019-01-27T04:07:41.577Z,14.63
2019-01-27T04:10:12.465Z,8.50
2019-01-27T04:12:40.439Z,11.37
2019-01-27T04:15:08.353Z,14.90
2019-01-27T04:17:36.673Z,13.63
2019-01-27T04:20:05.570Z,12.13
2019-01-27T04:22:33.993Z,11.83
2019-01-27T04:25:03.099Z,11.43
2019-01-27T04:27:31.141Z,15.37
2019-01-27T04:29:59.036Z,11.23
2019-01-27T04:32:27.042Z,8.27
2019-01-27T04:34:55.004Z,9.23
2019-01-27T04:37:24.261Z,9.20
2019-01-27T04:39:52.172Z,13.50
2019-01-27T04:42:21.401Z,11.17
2019-01-27T04:44:49.341Z,17.47
2019-01-27T04:47:17.363Z,14.53
2019-01-27T04:49:45.398Z,10.97
2019-01-27T04:52:13.249Z,12.03
2019-01-27T04:54:41.138Z,10.20
2019-01-27T04:57:09.131Z,7.23
2019-01-27T04:59:37.075Z,12.17
2019-01-27T05:02:05.124Z,11.30
2019-01-27T05:04:35.881Z,9.47
2019-01-27T05:07:04.186Z,12.87
2019-01-27T05:09:32.007Z,9.20
2019-01-27T05:12:00.026Z,11.97
2019-01-27T05:14:27.947Z,9.30
2019-01-27T05:16:55.868Z,6.90
2019-01-27T05:19:23.803Z,9.63
2019-01-27T05:21:51.680Z,10.23
2019-01-27T05:24:19.534Z,8.90
2019-01-27T05:26:47.387Z,11.03
2019-01-27T05:29:15.353Z,9.80
2019-01-27T05:31:43.374Z,8.13
2019-01-27T05:34:11.309Z,11.77
2019-01-27T05:36:39.206Z,8.80
2019-01-27T05:39:07.703Z,9.73
2019-01-27T05:41:35.640Z,8.20
2019-01-27T05:44:03.576Z,7.80
2019-01-27T05:46:31.496Z,10.33
2019-01-27T05:48:59.492Z,9.70
2019-01-27T05:51:27.485Z,9.27
2019-01-27T05:53:55.488Z,10.57
2019-01-27T05:56:23.363Z,12.47
2019-01-27T05:58:51.264Z,17.43
2019-01-27T06:01:20.572Z,11.80
2019-01-27T06:03:48.479Z,7.83
2019-01-27T06:06:16.361Z,12.63
2019-01-27T06:08:44.456Z,12.17
2019-01-27T06:11:14.923Z,6.57
2019-01-27T06:13:42.866Z,7.60
2019-01-27T06:16:10.770Z,7.97
2019-01-27T06:18:38.662Z,8.70
2019-01-27T06:21:06.684Z,9.60
2019-01-27T06:23:34.631Z,6.57
2019-01-27T06:26:02.581Z,7.27
2019-01-27T06:28:30.460Z,10.13
2019-01-27T06:30:58.400Z,10.70
2019-01-27T06:33:34.895Z,10.07
2019-01-27T06:36:02.915Z,7.33
2019-01-27T06:38:31.187Z,10.60
2019-01-27T06:40:59.486Z,10.90
2019-01-27T06:43:28.664Z,10.53
2019-01-27T06:45:57.318Z,14.40
2019-01-27T06:48:25.266Z,12.67
2019-01-27T06:50:53.460Z,10.40
2019-01-27T06:53:21.495Z,11.43
2019-01-27T06:55:49.391Z,19.53
2019-01-27T06:58:17.301Z,13.37
2019-01-27T07:01:13.312Z,15.97
2019-01-27T07:04:00.370Z,8.07
2019-01-27T07:06:36.868Z,11.90
2019-01-27T07:09:25.606Z,10.03
2019-01-27T07:12:27.596Z,6.80
2019-01-27T07:15:14.415Z,10.23
2019-01-27T07:18:00.345Z,11.97
2019-01-27T07:20:49.896Z,6.63
2019-01-27T07:23:56.336Z,9.30
2019-01-27T07:26:39.403Z,10.30
2019-01-27T07:29:21.897Z,20.03
2019-01-27T07:32:03.824Z,6.33
2019-01-27T07:35:01.323Z,14.03
2019-01-27T07:37:31.785Z,8.30
2019-01-27T07:40:14.419Z,13.53
2019-01-27T07:42:47.955Z,8.80
2019-01-27T07:45:41.165Z,11.30
2019-01-27T07:48:20.391Z,13.20
2019-01-27T07:51:12.278Z,18.27
2019-01-27T07:54:01.383Z,13.30
2019-01-27T07:56:47.250Z,11.77
2019-01-27T07:59:32.757Z,10.97
2019-01-27T08:02:13.257Z,10.60
2019-01-27T08:05:02.992Z,13.43
2019-01-27T08:07:52.736Z,12.97
2019-01-27T08:10:42.409Z,8.63
2019-01-27T08:13:35.457Z,12.80
2019-01-27T08:16:21.472Z,13.13
2019-01-27T08:18:58.967Z,8.03
2019-01-27T08:21:52.586Z,10.30
2019-01-27T08:24:57.985Z,18.13
2019-01-27T08:27:51.191Z,6.83
2019-01-27T08:30:32.148Z,12.20
2019-01-27T08:33:34.581Z,10.80
2019-01-27T08:36:29.206Z,8.60
2019-01-27T08:39:15.306Z,6.27
2019-01-27T08:42:03.506Z,10.33
2019-01-27T08:44:57.096Z,5.33
2019-01-27T08:47:25.680Z,10.53
2019-01-27T08:49:53.668Z,11.40
2019-01-27T08:52:24.503Z,10.47
2019-01-27T08:54:52.455Z,11.97
2019-01-27T08:57:20.440Z,10.73
2019-01-27T08:59:48.409Z,10.67
2019-01-27T09:02:28.081Z,10.30
2019-01-27T09:05:17.727Z,12.70
2019-01-27T09:08:07.818Z,14.53
2019-01-27T09:10:57.465Z,16.23
2019-01-27T09:13:45.672Z,9.70
2019-01-27T09:16:47.791Z,10.67
2019-01-27T09:19:45.263Z,11.67
2019-01-27T09:22:31.721Z,13.80
2019-01-27T09:25:17.449Z,22.50
2019-01-27T09:28:19.810Z,24.17
2019-01-27T09:31:25.594Z,27.67
2019-01-27T09:34:13.358Z,22.13
2019-01-27T09:36:59.165Z,23.47
2019-01-27T09:39:49.233Z,27.70
2019-01-27T09:42:43.886Z,27.47
2019-01-27T09:45:31.429Z,23.47
2019-01-27T09:48:24.417Z,19.43
2019-01-27T09:51:00.623Z,23.23
2019-01-27T09:53:33.633Z,19.43
2019-01-27T09:56:26.946Z,19.37
2019-01-27T09:59:21.730Z,19.90
2019-01-27T10:02:08.054Z,20.60
2019-01-27T10:04:42.826Z,18.00
2019-01-27T10:07:28.211Z,20.00
2019-01-27T10:10:13.790Z,18.80
2019-01-27T10:12:57.269Z,23.83
2019-01-27T10:15:45.254Z,23.90
2019-01-27T10:18:31.878Z,19.37
2019-01-27T10:21:24.795Z,14.27
2019-01-27T10:24:18.012Z,8.00
2019-01-27T10:27:04.365Z,10.70
2019-01-27T10:29:51.279Z,9.60
2019-01-27T10:32:36.805Z,14.10
2019-01-27T10:35:30.313Z,16.37
2019-01-27T10:38:04.054Z,9.93
2019-01-27T10:40:42.332Z,15.17
2019-01-27T10:43:29.214Z,11.20
2019-01-27T10:46:18.960Z,7.20
2019-01-27T10:49:14.720Z,17.93
2019-01-27T10:51:57.324Z,13.27
2019-01-27T10:54:31.707Z,14.43
2019-01-27T10:57:13.950Z,19.63
2019-01-27T10:59:53.055Z,21.00
2019-01-27T11:02:49.101Z,27.37
2019-01-27T11:05:26.540Z,22.90
2019-01-27T11:08:14.381Z,12.60
2019-01-27T11:11:13.621Z,20.97
2019-01-27T11:14:00.622Z,25.20
2019-01-27T11:16:42.076Z,17.87
2019-01-27T11:19:18.205Z,17.33
2019-01-27T11:22:03.932Z,14.93
2019-01-27T11:24:38.310Z,16.40
2019-01-27T11:27:24.110Z,12.17
2019-01-27T11:30:14.060Z,18.63
2019-01-27T11:33:02.629Z,16.27
2019-01-27T11:35:58.158Z,18.00
2019-01-27T11:38:51.227Z,14.40
2019-01-27T11:41:38.070Z,11.37
2019-01-27T11:44:31.005Z,14.57
2019-01-27T11:47:14.769Z,9.20
2019-01-27T11:50:04.685Z,9.47
2019-01-27T11:52:38.455Z,15.93
2019-01-27T11:55:07.205Z,10.23
2019-01-27T11:57:39.832Z,9.80
2019-01-27T12:00:09.343Z,10.73
2019-01-27T12:02:37.270Z,11.17
2019-01-27T12:05:05.607Z,11.77
2019-01-27T12:07:33.512Z,11.00
2019-01-27T12:10:01.424Z,15.93
2019-01-27T12:12:29.346Z,14.17
2019-01-27T12:14:57.334Z,17.40
2019-01-27T12:17:25.225Z,16.60
2019-01-27T12:19:53.081Z,9.07
2019-01-27T12:22:21.025Z,14.23
2019-01-27T12:25:00.758Z,10.27
2019-01-27T12:27:29.892Z,11.03
2019-01-27T12:29:57.827Z,9.07
2019-01-27T12:32:25.701Z,9.80
2019-01-27T12:34:53.861Z,11.73
2019-01-27T12:37:21.891Z,10.23
2019-01-27T12:39:49.969Z,14.17
2019-01-27T12:42:24.180Z,16.27
2019-01-27T12:44:52.053Z,12.83
2019-01-27T12:47:20.015Z,11.23
2019-01-27T12:49:47.964Z,14.23
2019-01-27T12:52:15.831Z,8.67
2019-01-27T12:54:43.746Z,13.77
2019-01-27T12:57:11.606Z,18.03
2019-01-27T12:59:39.484Z,14.20
2019-01-27T13:02:07.429Z,12.27
2019-01-27T13:04:35.384Z,10.40
2019-01-27T13:07:03.295Z,17.13
2019-01-27T13:09:31.221Z,10.27
2019-01-27T13:11:59.092Z,12.07
2019-01-27T13:14:27.032Z,13.13
2019-01-27T13:16:54.914Z,11.53
2019-01-27T13:19:22.780Z,9.73
2019-01-27T13:21:50.599Z,11.93
2019-01-27T13:24:18.993Z,11.30
2019-01-27T13:26:46.821Z,13.53
2019-01-27T13:29:14.706Z,10.90
2019-01-27T13:31:42.608Z,9.37
2019-01-27T13:34:10.568Z,10.73
2019-01-27T13:36:38.405Z,9.50
2019-01-27T13:39:07.870Z,11.90
2019-01-27T13:41:35.692Z,12.43
2019-01-27T13:44:03.507Z,13.37
2019-01-27T13:46:31.978Z,13.17
2019-01-27T13:48:59.890Z,9.97
2019-01-27T13:51:27.797Z,14.33
2019-01-27T13:53:55.727Z,14.83
2019-01-27T13:56:23.667Z,10.00
2019-01-27T13:58:51.480Z,12.07
2019-01-27T14:01:19.412Z,9.53
2019-01-27T14:03:47.431Z,15.73
2019-01-27T14:06:15.279Z,11.13
2019-01-27T14:08:43.144Z,6.60
2019-01-27T14:11:11.113Z,12.37
2019-01-27T14:13:39.133Z,9.50
2019-01-27T14:16:07.024Z,8.50
2019-01-27T14:18:34.890Z,10.60
2019-01-27T14:21:02.755Z,10.30
2019-01-27T14:23:30.632Z,11.23
2019-01-27T14:25:58.867Z,10.47
2019-01-27T14:28:26.688Z,8.57
2019-01-27T14:30:54.559Z,14.60
2019-01-27T14:33:22.488Z,12.80
2019-01-27T14:35:53.586Z,8.20
2019-01-27T14:38:21.638Z,9.03
2019-01-27T14:40:49.516Z,8.60
2019-01-27T14:43:17.579Z,8.97
2019-01-27T14:45:45.662Z,10.27
2019-01-27T14:48:13.532Z,6.83
2019-01-27T14:50:43.178Z,9.23
2019-01-27T14:53:11.101Z,9.53
2019-01-27T14:55:38.999Z,7.37
2019-01-27T14:58:09.964Z,5.50
2019-01-27T15:00:38.694Z,8.13
2019-01-27T15:03:08.015Z,6.57
2019-01-27T15:05:35.886Z,8.80
2019-01-27T15:08:03.795Z,16.33
2019-01-27T15:10:31.718Z,11.83
2019-01-27T15:12:59.732Z,11.83
2019-01-27T15:15:27.596Z,10.20
2019-01-27T15:17:55.465Z,11.27
2019-01-27T15:20:27.792Z,12.73
2019-01-27T15:22:55.576Z,10.43
2019-01-27T15:25:23.463Z,11.93
2019-01-27T15:27:51.443Z,10.13
2019-01-27T15:30:21.108Z,15.00
2019-01-27T15:32:51.714Z,11.03
2019-01-27T15:35:19.533Z,12.70
2019-01-27T15:37:47.616Z,10.57
2019-01-27T15:40:15.535Z,10.93
2019-01-27T15:42:43.398Z,12.37
2019-01-27T15:45:12.768Z,13.03
2019-01-27T15:47:40.707Z,9.33
2019-01-27T15:50:09.707Z,11.83
2019-01-27T15:52:37.662Z,7.87
2019-01-27T15:55:06.578Z,14.60
2019-01-27T15:57:34.705Z,10.83
2019-01-27T16:00:02.786Z,8.70
2019-01-27T16:02:30.668Z,11.87
2019-01-27T16:04:58.637Z,10.17
2019-01-27T16:07:26.656Z,9.23
2019-01-27T16:09:57.400Z,9.97
2019-01-27T16:12:24.185Z,9.57
2019-01-27T16:14:52.056Z,8.07
2019-01-27T16:17:19.919Z,8.97
2019-01-27T16:19:48.797Z,10.10
2019-01-27T16:22:16.689Z,9.17
2019-01-27T16:24:44.603Z,10.70
2019-01-27T16:27:12.647Z,10.37
2019-01-27T16:29:59.519Z,7.70
2019-01-27T16:32:38.868Z,8.20
2019-01-27T16:35:10.919Z,10.00
2019-01-27T16:37:38.792Z,3.73
2019-01-27T16:40:08.059Z,9.83
2019-01-27T16:42:36.159Z,10.37
2019-01-27T16:45:04.535Z,9.43
2019-01-27T16:47:32.646Z,9.87
2019-01-27T16:50:02.933Z,7.90
2019-01-27T16:52:31.341Z,7.53
2019-01-27T16:55:02.223Z,12.17
2019-01-27T16:57:30.231Z,6.17
2019-01-27T16:59:58.229Z,10.43
2019-01-27T17:02:34.049Z,9.23
2019-01-27T17:05:08.199Z,11.13
2019-01-27T17:07:36.084Z,9.13
2019-01-27T17:10:04.037Z,6.67
2019-01-27T17:12:32.436Z,8.43
2019-01-27T17:15:00.374Z,8.43
2019-01-27T17:17:28.290Z,9.60
2019-01-27T17:20:02.511Z,7.13
2019-01-27T17:22:26.511Z,8.10
2019-01-27T17:24:54.411Z,9.63
2019-01-27T17:27:22.369Z,10.87
2019-01-27T17:29:52.228Z,9.13
2019-01-27T17:32:20.108Z,8.30
2019-01-27T17:34:47.991Z,7.17
2019-01-27T17:37:18.710Z,6.93
2019-01-27T17:39:47.792Z,7.17
2019-01-27T17:42:15.652Z,9.50
2019-01-27T17:44:45.421Z,11.00
2019-01-27T17:47:13.442Z,10.30
2019-01-27T17:49:42.450Z,9.70
2019-01-27T17:52:10.389Z,7.97
2019-01-27T17:54:38.309Z,9.33
2019-01-27T17:57:17.334Z,7.00
2019-01-27T18:00:04.279Z,5.33
2019-01-27T18:02:55.446Z,5.00
2019-01-27T18:05:51.089Z,6.20
2019-01-27T18:08:27.153Z,6.37
2019-01-27T18:11:13.164Z,7.17
2019-01-27T18:13:48.953Z,9.43
2019-01-27T18:16:19.468Z,8.20
2019-01-27T18:18:49.279Z,10.70
2019-01-27T18:21:17.211Z,11.53
2019-01-27T18:23:45.660Z,7.83
2019-01-27T18:26:13.727Z,9.13
2019-01-27T18:28:41.686Z,8.53
2019-01-27T18:31:09.577Z,9.20
2019-01-27T18:33:38.952Z,7.30
2019-01-27T18:36:06.939Z,9.17
2019-01-27T18:38:43.902Z,7.53
2019-01-27T18:41:12.084Z,7.67
2019-01-27T18:43:39.917Z,7.43
2019-01-27T18:46:09.585Z,8.30
2019-01-27T18:48:37.687Z,8.40
2019-01-27T18:51:07.861Z,13.80
2019-01-27T18:54:01.013Z,7.63
2019-01-27T18:56:47.953Z,4.13
2019-01-27T18:59:34.493Z,7.77
2019-01-27T19:02:19.369Z,8.03
2019-01-27T19:05:15.256Z,8.23
2019-01-27T19:07:52.518Z,6.57
2019-01-27T19:10:39.498Z,7.53
2019-01-27T19:13:16.509Z,10.07
2019-01-27T19:16:00.411Z,9.70
2019-01-27T19:18:50.147Z,12.60
2019-01-27T19:21:37.326Z,9.30
2019-01-27T19:24:17.342Z,13.87
2019-01-27T19:26:54.668Z,8.50
2019-01-27T19:29:35.026Z,8.67
2019-01-27T19:32:25.132Z,9.90
2019-01-27T19:35:04.202Z,6.40
2019-01-27T19:37:53.945Z,11.13
2019-01-27T19:40:37.615Z,10.20
2019-01-27T19:43:18.321Z,14.63
2019-01-27T19:46:14.508Z,8.57
2019-01-27T19:49:20.979Z,7.63
2019-01-27T19:52:08.167Z,8.13
2019-01-27T19:54:55.184Z,7.93
2019-01-27T19:57:45.089Z,7.20
2019-01-27T20:00:25.522Z,6.53
2019-01-27T20:03:19.494Z,7.73
2019-01-27T20:06:15.604Z,11.13
2019-01-27T20:09:02.499Z,10.47
2019-01-27T20:11:53.787Z,15.13
2019-01-27T20:14:47.528Z,8.33
2019-01-27T20:17:37.208Z,13.60
2019-01-27T20:20:25.669Z,8.93
2019-01-27T20:23:00.807Z,8.70
2019-01-27T20:26:00.121Z,7.90
2019-01-27T20:28:46.218Z,19.33
2019-01-27T20:31:35.853Z,8.60
2019-01-27T20:34:29.445Z,10.03
2019-01-27T20:37:19.541Z,8.43
2019-01-27T20:40:23.131Z,6.67
2019-01-27T20:43:22.156Z,14.63
2019-01-27T20:46:09.060Z,12.47
2019-01-27T20:49:13.959Z,9.77
2019-01-27T20:51:59.883Z,14.00
2019-01-27T20:54:50.337Z,12.67
2019-01-27T20:57:28.529Z,15.40
2019-01-27T21:00:18.481Z,17.33
2019-01-27T21:03:09.021Z,16.60
2019-01-27T21:05:49.988Z,12.70
2019-01-27T21:08:43.847Z,12.90
2019-01-27T21:11:37.059Z,11.00
2019-01-27T21:14:30.198Z,7.67
2019-01-27T21:17:12.574Z,8.70
2019-01-27T21:19:47.372Z,11.87
2019-01-27T21:22:15.266Z,8.47
2019-01-27T21:24:43.100Z,13.33
2019-01-27T21:27:12.369Z,8.20
2019-01-27T21:29:41.834Z,10.93
2019-01-27T21:32:09.811Z,15.50
2019-01-27T21:34:37.698Z,15.10
2019-01-27T21:37:05.645Z,7.60
2019-01-27T21:39:33.493Z,7.03
2019-01-27T21:42:04.091Z,12.90
2019-01-27T21:44:31.935Z,13.40
2019-01-27T21:46:59.939Z,10.27
2019-01-27T21:49:28.865Z,14.27
2019-01-27T21:51:57.174Z,14.10
2019-01-27T21:54:25.110Z,16.87
2019-01-27T21:56:53.546Z,9.00
2019-01-27T21:59:21.497Z,12.27
2019-01-27T22:01:50.742Z,12.80
2019-01-27T22:04:19.519Z,12.23
2019-01-27T22:06:49.700Z,14.30
2019-01-27T22:09:18.068Z,10.53
2019-01-27T22:11:48.580Z,11.40
2019-01-27T22:14:18.500Z,10.27
2019-01-27T22:16:46.436Z,12.23
2019-01-27T22:19:14.393Z,15.03
2019-01-27T22:21:47.662Z,14.37
2019-01-27T22:24:19.389Z,12.37
2019-01-27T22:26:49.027Z,17.83
2019-01-27T22:29:16.911Z,13.87
2019-01-27T22:31:47.347Z,14.50
2019-01-27T22:34:17.449Z,11.03
2019-01-27T22:36:45.437Z,16.10
2019-01-27T22:39:13.489Z,11.17
2019-01-27T22:41:41.533Z,15.97
2019-01-27T22:44:09.377Z,11.20
2019-01-27T22:46:37.249Z,12.70
2019-01-27T22:49:05.160Z,12.57
2019-01-27T22:51:33.063Z,14.70
2019-01-27T22:54:00.939Z,11.20
2019-01-27T22:56:28.954Z,9.13
2019-01-27T22:58:58.132Z,6.93
2019-01-27T23:01:26.049Z,14.00
2019-01-27T23:03:54.499Z,10.90
2019-01-27T23:06:22.414Z,10.80
2019-01-27T23:08:50.388Z,7.60
2019-01-27T23:11:18.467Z,11.37
2019-01-27T23:13:46.367Z,12.90
2019-01-27T23:16:14.317Z,9.80
2019-01-27T23:18:42.217Z,13.20
2019-01-27T23:21:10.027Z,17.43
2019-01-27T23:23:37.915Z,11.70
2019-01-27T23:26:06.092Z,12.27
2019-01-27T23:28:34.126Z,13.43
2019-01-27T23:31:03.106Z,11.13
2019-01-27T23:33:31.018Z,11.93
2019-01-27T23:35:59.142Z,12.37
2019-01-27T23:38:27.047Z,17.97
2019-01-27T23:40:57.371Z,12.97
2019-01-27T23:43:25.214Z,21.10
2019-01-27T23:45:53.114Z,15.73
2019-01-27T23:48:23.806Z,16.40
2019-01-27T23:50:51.680Z,17.43
2019-01-27T23:53:19.952Z,12.23
2019-01-27T23:55:47.885Z,15.10
2019-01-27T23:58:15.842Z,13.20
